createdAt,value
2022-09-01T01:02:23.362Z,14.00
2022-09-01T01:17:01.856Z,14.10
2022-09-01T01:40:01.682Z,14.10
2022-09-01T03:32:48.610Z,14.30
2022-09-01T04:30:29.003Z,14.20
2022-09-01T05:02:43.448Z,14.30
2022-09-01T05:05:21.835Z,14.40
2022-09-01T05:18:59.553Z,14.50
2022-09-01T05:31:05.398Z,14.50
2022-09-01T05:48:03.571Z,14.80
2022-09-01T05:50:31.745Z,14.90
2022-09-01T05:52:59.087Z,14.90
2022-09-01T05:55:27.836Z,14.90
2022-09-01T05:57:57.032Z,14.90
2022-09-01T06:00:25.331Z,15.00
2022-09-01T06:02:53.817Z,15.00
2022-09-01T06:05:55.504Z,15.10
2022-09-01T06:08:25.473Z,15.10
2022-09-01T06:10:53.044Z,15.10
2022-09-01T06:13:22.034Z,15.10
2022-09-01T06:16:20.250Z,15.10
2022-09-01T06:18:47.649Z,15.00
2022-09-01T06:21:19.448Z,15.20
2022-09-01T06:23:49.185Z,15.30
2022-09-01T06:26:18.816Z,15.30
2022-09-01T06:28:46.801Z,15.30
2022-09-01T06:31:15.266Z,15.30
2022-09-01T06:33:42.753Z,15.30
2022-09-01T06:36:10.087Z,15.40
2022-09-01T06:38:37.818Z,15.40
2022-09-01T06:41:13.072Z,15.50
2022-09-01T06:43:44.747Z,15.50
2022-09-01T06:46:12.179Z,15.50
2022-09-01T06:48:46.686Z,15.50
2022-09-01T06:51:18.985Z,15.50
2022-09-01T06:53:56.826Z,15.50
2022-09-01T06:56:32.173Z,15.50
2022-09-01T06:59:04.265Z,15.60
2022-09-01T07:01:32.560Z,15.60
2022-09-01T07:04:01.971Z,15.60
2022-09-01T07:07:00.325Z,15.60
2022-09-01T07:10:25.246Z,15.60
2022-09-01T07:13:12.416Z,15.70
2022-09-01T07:18:34.111Z,15.80
2022-09-01T07:21:36.899Z,15.90
2022-09-01T07:24:11.519Z,15.90
2022-09-01T07:26:51.938Z,16.00
2022-09-01T07:29:26.432Z,16.00
2022-09-01T07:34:50.299Z,16.00
2022-09-01T07:43:29.797Z,16.10
2022-09-01T07:52:03.946Z,16.10
2022-09-01T07:54:31.896Z,16.10
2022-09-01T07:56:59.513Z,16.20
2022-09-01T07:59:28.136Z,16.20
2022-09-01T08:02:22.664Z,16.30
2022-09-01T08:04:50.225Z,16.30
2022-09-01T08:07:18.388Z,16.30
2022-09-01T08:09:46.462Z,16.40
2022-09-01T08:12:15.232Z,16.40
2022-09-01T08:17:57.320Z,16.70
2022-09-01T08:20:27.866Z,16.70
2022-09-01T08:23:10.062Z,16.80
2022-09-01T08:25:39.940Z,16.90
2022-09-01T08:28:08.149Z,17.00
2022-09-01T08:30:36.788Z,17.10
2022-09-01T08:33:10.968Z,17.20
2022-09-01T08:35:44.789Z,17.20
2022-09-01T08:38:12.743Z,17.30
2022-09-01T08:40:43.297Z,17.30
2022-09-01T08:43:32.234Z,17.40
2022-09-01T08:46:32.423Z,17.50
2022-09-01T08:49:25.359Z,17.40
2022-09-01T08:52:39.185Z,17.40
2022-09-01T08:55:35.422Z,17.40
2022-09-01T08:58:06.962Z,17.50
2022-09-01T09:01:06.168Z,17.50
2022-09-01T09:03:49.425Z,17.40
2022-09-01T09:06:25.967Z,17.40
2022-09-01T09:09:18.168Z,17.40
2022-09-01T09:11:56.964Z,17.60
2022-09-01T09:15:01.537Z,17.60
2022-09-01T09:20:25.148Z,17.90
2022-09-01T09:22:56.347Z,17.80
2022-09-01T09:28:52.142Z,17.50
2022-09-01T09:31:33.916Z,17.50
2022-09-01T09:34:29.551Z,17.20
2022-09-01T09:37:05.659Z,17.30
2022-09-01T09:39:43.989Z,17.40
2022-09-01T09:45:42.759Z,17.30
2022-09-01T09:48:30.108Z,17.30
2022-09-01T09:51:21.838Z,17.30
2022-09-01T09:53:49.726Z,17.30
2022-09-01T09:56:20.798Z,17.30
2022-09-01T09:58:50.211Z,17.40
2022-09-01T10:01:24.318Z,17.70
2022-09-01T10:03:54.867Z,17.90
2022-09-01T10:06:34.294Z,18.10
2022-09-01T10:09:07.323Z,18.10
2022-09-01T10:11:46.427Z,18.10
2022-09-01T10:14:35.863Z,17.90
2022-09-01T10:17:43.648Z,18.30
2022-09-01T10:20:22.923Z,18.30
2022-09-01T10:22:52.992Z,18.20
2022-09-01T10:25:33.293Z,18.20
2022-09-01T10:28:11.534Z,18.30
2022-09-01T10:31:04.376Z,18.40
2022-09-01T10:33:32.401Z,18.50
2022-09-01T10:35:59.621Z,18.40
2022-09-01T10:38:28.792Z,18.20
2022-09-01T10:41:14.021Z,18.10
2022-09-01T10:43:45.257Z,18.00
2022-09-01T10:46:40.713Z,18.00
2022-09-01T10:49:32.399Z,18.00
2022-09-01T10:52:07.537Z,18.00
2022-09-01T10:54:55.599Z,18.00
2022-09-01T10:57:42.898Z,18.30
2022-09-01T11:00:36.819Z,18.40
2022-09-01T11:06:12.893Z,18.40
2022-09-01T11:08:57.372Z,18.20
2022-09-01T11:12:01.210Z,18.10
2022-09-01T11:14:29.691Z,18.10
2022-09-01T11:17:17.957Z,18.10
2022-09-01T11:20:10.452Z,18.00
2022-09-01T11:22:43.477Z,18.00
2022-09-01T11:25:11.616Z,18.00
2022-09-01T11:27:54.830Z,18.00
2022-09-01T11:30:53.627Z,17.90
2022-09-01T11:33:54.375Z,17.90
2022-09-01T11:36:30.792Z,18.00
2022-09-01T11:39:06.741Z,18.20
2022-09-01T11:41:40.053Z,18.30
2022-09-01T11:44:33.878Z,18.30
2022-09-01T11:47:16.835Z,18.40
2022-09-01T11:50:03.455Z,18.50
2022-09-01T11:52:35.017Z,18.70
2022-09-01T11:55:11.679Z,18.90
2022-09-01T11:57:40.802Z,19.00
2022-09-01T12:00:25.690Z,19.00
2022-09-01T12:02:55.204Z,19.00
2022-09-01T12:05:34.805Z,19.10
2022-09-01T12:08:23.908Z,19.20
2022-09-01T12:11:19.745Z,19.20
2022-09-01T12:14:04.695Z,19.10
2022-09-01T12:16:37.349Z,19.20
2022-09-01T12:19:06.344Z,18.90
2022-09-01T12:21:42.793Z,19.20
2022-09-01T12:24:22.113Z,19.20
2022-09-01T12:26:57.871Z,19.20
2022-09-01T12:29:28.891Z,19.40
2022-09-01T12:32:01.819Z,19.40
2022-09-01T12:34:42.751Z,19.40
2022-09-01T12:37:23.223Z,19.40
2022-09-01T12:39:54.662Z,19.60
2022-09-01T12:42:27.637Z,19.70
2022-09-01T12:45:09.058Z,19.90
2022-09-01T12:47:48.447Z,20.00
2022-09-01T12:50:17.196Z,19.90
2022-09-01T12:52:56.691Z,19.70
2022-09-01T12:58:25.972Z,19.90
2022-09-01T13:01:05.761Z,20.10
2022-09-01T13:03:36.432Z,20.00
2022-09-01T13:06:05.185Z,19.90
2022-09-01T13:12:16.424Z,19.70
2022-09-01T13:14:45.429Z,19.60
2022-09-01T13:18:07.054Z,19.50
2022-09-01T13:20:40.060Z,19.70
2022-09-01T13:23:47.805Z,19.70
2022-09-01T13:26:14.979Z,19.90
2022-09-01T13:28:42.065Z,19.80
2022-09-01T13:31:29.939Z,19.80
2022-09-01T13:34:22.066Z,19.80
2022-09-01T13:37:47.450Z,19.70
2022-09-01T13:40:23.333Z,19.60
2022-09-01T13:53:41.923Z,19.40
2022-09-01T13:56:09.023Z,19.20
2022-09-01T13:58:37.182Z,19.10
2022-09-01T14:01:05.151Z,19.00
2022-09-01T14:03:33.840Z,18.90
2022-09-01T14:06:01.187Z,18.80
2022-09-01T14:08:28.359Z,18.90
2022-09-01T14:10:56.287Z,19.00
2022-09-01T14:13:25.452Z,19.50
2022-09-01T14:15:53.787Z,20.60
2022-09-01T14:18:32.156Z,21.60
2022-09-01T14:21:01.439Z,22.30
2022-09-01T14:23:35.158Z,22.40
2022-09-01T14:26:02.339Z,22.50
2022-09-01T14:28:29.534Z,22.80
2022-09-01T14:33:27.456Z,23.20
2022-09-01T14:35:54.716Z,22.90
2022-09-01T14:38:49.901Z,22.50
2022-09-01T14:41:22.060Z,21.90
2022-09-01T14:43:59.725Z,21.40
2022-09-01T14:46:34.826Z,21.10
2022-09-01T14:49:03.495Z,20.70
2022-09-01T14:54:21.274Z,20.40
2022-09-01T14:59:37.397Z,20.00
2022-09-01T15:02:05.105Z,19.90
2022-09-01T15:04:32.334Z,19.80
2022-09-01T15:07:13.651Z,19.80
2022-09-01T15:09:41.028Z,19.70
2022-09-01T15:12:10.224Z,19.60
2022-09-01T15:14:38.056Z,19.60
2022-09-01T15:17:06.944Z,19.50
2022-09-01T15:19:35.144Z,19.40
2022-09-01T15:22:02.504Z,19.30
2022-09-01T15:24:29.740Z,19.20
2022-09-01T15:26:59.218Z,19.10
2022-09-01T15:29:26.450Z,19.20
2022-09-01T15:31:54.330Z,19.30
2022-09-01T15:34:21.479Z,19.20
2022-09-01T15:36:48.664Z,19.20
2022-09-01T15:39:15.816Z,19.30
2022-09-01T15:41:44.285Z,19.40
2022-09-01T15:44:11.749Z,19.50
2022-09-01T15:46:40.671Z,19.40
2022-09-01T15:49:13.592Z,19.20
2022-09-01T15:51:43.901Z,19.10
2022-09-01T15:54:20.045Z,19.00
2022-09-01T15:56:47.790Z,18.90
2022-09-01T15:59:24.101Z,18.90
2022-09-01T16:01:53.312Z,18.80
2022-09-01T16:04:25.470Z,18.60
2022-09-01T16:06:58.467Z,18.60
2022-09-01T16:09:28.378Z,18.50
2022-09-01T16:11:55.662Z,18.40
2022-09-01T16:14:23.612Z,18.30
2022-09-01T16:16:59.793Z,18.20
2022-09-01T16:19:45.680Z,18.10
2022-09-01T16:22:18.527Z,18.00
2022-09-01T16:24:49.572Z,17.90
2022-09-01T16:27:24.561Z,17.80
2022-09-01T16:29:58.871Z,17.70
2022-09-01T16:33:26.550Z,17.70
2022-09-01T16:36:31.487Z,17.60
2022-09-01T16:39:07.076Z,17.50
2022-09-01T16:42:08.096Z,17.40
2022-09-01T16:44:50.272Z,17.30
2022-09-01T16:47:40.741Z,17.20
2022-09-01T16:50:19.751Z,17.20
2022-09-01T16:53:22.107Z,17.10
2022-09-01T16:56:15.183Z,17.10
2022-09-01T16:58:59.353Z,17.10
2022-09-01T17:01:53.740Z,17.20
2022-09-01T17:05:04.146Z,17.10
2022-09-01T17:07:48.175Z,17.10
2022-09-01T17:10:34.022Z,17.00
2022-09-01T17:13:32.442Z,17.00
2022-09-01T17:16:08.120Z,17.00
2022-09-01T17:18:39.264Z,17.10
2022-09-01T17:21:14.309Z,17.10
2022-09-01T17:23:52.563Z,17.00
2022-09-01T17:26:27.224Z,17.10
2022-09-01T17:29:13.504Z,17.00
2022-09-01T17:32:09.099Z,16.90
2022-09-01T17:34:42.219Z,16.80
2022-09-01T17:37:28.878Z,16.90
2022-09-01T17:40:08.745Z,17.00
2022-09-01T17:43:02.748Z,17.00
2022-09-01T17:46:22.300Z,17.00
2022-09-01T17:49:08.367Z,17.00
2022-09-01T17:52:01.263Z,16.80
2022-09-01T17:54:46.601Z,16.70
2022-09-01T17:57:36.706Z,16.60
2022-09-01T18:00:23.878Z,16.50
2022-09-01T18:03:11.136Z,16.50
2022-09-01T18:05:46.160Z,16.40
2022-09-01T18:08:20.589Z,16.30
2022-09-01T18:11:13.402Z,16.30
2022-09-01T18:18:47.675Z,16.10
2022-09-01T18:22:06.884Z,15.90
2022-09-01T18:27:55.503Z,15.60
2022-09-01T18:31:42.825Z,15.80
2022-09-01T18:34:49.868Z,15.10
2022-09-01T18:38:03.709Z,15.20
2022-09-01T18:52:40.465Z,15.50
2022-09-01T19:25:54.911Z,15.40
2022-09-01T19:29:44.029Z,15.20
2022-09-01T19:51:42.151Z,15.00
2022-09-01T20:18:09.207Z,14.80
2022-09-01T20:43:47.591Z,14.40
2022-09-01T20:57:59.806Z,14.20
2022-09-01T21:01:47.589Z,14.20
2022-09-01T21:08:41.207Z,14.00
2022-09-01T21:20:18.789Z,14.10
2022-09-01T21:41:47.617Z,13.80
2022-09-01T22:08:38.664Z,13.90
2022-09-01T22:19:10.234Z,13.80
2022-09-01T22:35:39.308Z,13.60
2022-09-01T22:46:14.853Z,13.90
